Safmarine Limpopo — 4RBK — position and weather

sailwx.info

Track history (hours):
 
Tides and Currents Weather Stations Pressure Air Temp Water Temp Dewpoint Dewpoint Depression Visibility Wind Speed Wind Dir Waves Ship Positions

Safmarine Limpopo

Last reported at 2014-Dec-10 21:04 UTC. Time now 2014-Dec-20 00:54 UTC.
Position N 50°31' E 000°09'.
Warning: this ship's position is 9 days out of date.

Length 140 m; draft 8.5 m.

Type: Ship (hazmat cat A). MMSI: 417222324.

Date/timePositionNaut miles runAvg speedWind from/ knotsBaromVisibWave heightAir tempDewpointWater temp
2014-Dec-10 21:04N 50°31' E 000°09'611.6
2014-Dec-10 20:32N 50°33' E 000°19'1212.6
2014-Dec-10 19:33N 50°36' E 000°37'1414.2
2014-Dec-10 18:33N 50°43' E 000°56'1612.8
2014-Dec-10 17:18N 50°53' E 001°16'912.0
2014-Dec-10 16:34N 50°60' E 001°26'1010.3
2014-Dec-10 15:33N 51°07' E 001°37'1010.3
2014-Dec-10 14:33N 51°15' E 001°48'1111.4
2014-Dec-10 13:33N 51°25' E 001°57'1212.5
2014-Dec-10 12:33N 51°35' E 002°08'  
2014-Dec-05 20:33N 51°46' E 003°07'7 6.9
2014-Dec-05 19:31N 51°40' E 003°12'1311.5
2014-Dec-05 18:22N 51°28' E 003°01'8 9.9
2014-Dec-05 17:33N 51°24' E 003°13'1414.3
2014-Dec-05 16:33N 51°26' E 003°35'1313.1
2014-Dec-05 15:33N 51°22' E 003°55'9 9.5
2014-Dec-05 14:33N 51°23' E 004°10'9 9.2
2014-Dec-05 13:34N 51°17' E 004°20'0 0.0
2014-Dec-05 12:33N 51°17' E 004°20'2 2.4
2014-Dec-05 11:34N 51°16' E 004°24'0 0.1
2014-Dec-05 10:33N 51°16' E 004°24'0 0.0
2014-Dec-05 09:33N 51°16' E 004°24'0 0.0
2014-Dec-05 08:33N 51°16' E 004°24'0 0.0
2014-Dec-05 07:33N 51°16' E 004°24'0 0.0
2014-Dec-05 06:33N 51°16' E 004°24'0 0.0
2014-Dec-05 05:33N 51°16' E 004°24'0 0.0
2014-Dec-05 04:30N 51°16' E 004°24'0 0.0
2014-Dec-05 03:33N 51°16' E 004°24'0 0.0
2014-Dec-05 02:33N 51°16' E 004°24'0 0.0
2014-Dec-05 01:33N 51°16' E 004°24'0 0.0
2014-Dec-05 00:33N 51°16' E 004°24'0 0.0
2014-Dec-04 23:33N 51°16' E 004°24'0 0.0
2014-Dec-04 22:33N 51°16' E 004°24'0 0.0
2014-Dec-04 21:33N 51°16' E 004°24'0 0.0
2014-Dec-04 20:33N 51°16' E 004°24'0 0.0
2014-Dec-04 19:33N 51°16' E 004°24'0 0.0
2014-Dec-04 18:33N 51°16' E 004°24'0 0.0
2014-Dec-04 17:33N 51°16' E 004°24'0 0.0
2014-Dec-04 16:33N 51°16' E 004°24'0 0.0
2014-Dec-04 15:33N 51°16' E 004°24'0 0.0
2014-Dec-04 14:33N 51°16' E 004°24'0 0.0
2014-Dec-04 13:33N 51°16' E 004°24'0 0.0
2014-Dec-04 12:33N 51°16' E 004°24'0 0.0
2014-Dec-04 11:30N 51°16' E 004°24'0 0.0
2014-Dec-04 10:33N 51°16' E 004°24'0 0.0
2014-Dec-04 09:33N 51°16' E 004°24'0 0.0
2014-Dec-04 08:33N 51°16' E 004°24'0 0.0
2014-Dec-04 07:33N 51°16' E 004°24'0 0.0
2014-Dec-04 06:33N 51°16' E 004°24'0 0.0
2014-Dec-04 05:33N 51°16' E 004°24'0 0.0
2014-Dec-04 04:33N 51°16' E 004°24'0 0.0
2014-Dec-04 03:33N 51°16' E 004°24'0 0.0
2014-Dec-04 02:33N 51°16' E 004°24'0 0.0
2014-Dec-04 01:33N 51°16' E 004°24'0 0.0
2014-Dec-04 00:33N 51°16' E 004°24'0 0.0
2014-Dec-03 23:33N 51°16' E 004°24'0 0.0
2014-Dec-03 22:33N 51°16' E 004°24'0 0.0
2014-Dec-03 21:33N 51°16' E 004°24'0 0.0
2014-Dec-03 20:33N 51°16' E 004°24'0 0.0
2014-Dec-03 19:33N 51°16' E 004°24'0 0.0
2014-Dec-03 18:33N 51°16' E 004°24'0 0.0
2014-Dec-03 17:33N 51°16' E 004°24'0 0.0
2014-Dec-03 16:33N 51°16' E 004°24'0 0.0
2014-Dec-03 15:33N 51°16' E 004°24'0 0.0
2014-Dec-03 14:33N 51°16' E 004°24'0 0.0
2014-Dec-03 13:33N 51°16' E 004°24'0 0.0
2014-Dec-03 12:33N 51°16' E 004°24'0 0.0
2014-Dec-03 11:33N 51°16' E 004°24'0 0.0
2014-Dec-03 10:33N 51°16' E 004°24'0 0.0
2014-Dec-03 09:33N 51°16' E 004°24'0 0.0
2014-Dec-03 08:33N 51°16' E 004°24'0 0.0
2014-Dec-03 07:33N 51°16' E 004°24'0 0.0
2014-Dec-03 06:33N 51°16' E 004°24'0 0.0
2014-Dec-03 05:30N 51°16' E 004°24'0 0.0
2014-Dec-03 04:33N 51°16' E 004°24'0 0.0
2014-Dec-03 03:33N 51°16' E 004°24'0 0.0
2014-Dec-03 02:33N 51°16' E 004°24'0 0.0
2014-Dec-03 01:33N 51°16' E 004°24'0 0.0
2014-Dec-03 00:33N 51°16' E 004°24'0 0.0
2014-Dec-02 23:33N 51°16' E 004°24'0 0.0
2014-Dec-02 22:33N 51°16' E 004°24'0 0.0
2014-Dec-02 21:33N 51°16' E 004°24'0 0.0
2014-Dec-02 20:33N 51°16' E 004°24'0 0.0
2014-Dec-02 19:33N 51°16' E 004°24'0 0.0
2014-Dec-02 18:33N 51°16' E 004°24'0 0.0
2014-Dec-02 17:33N 51°16' E 004°24'0 0.0
2014-Dec-02 16:33N 51°16' E 004°24'0 0.0
2014-Dec-02 15:33N 51°16' E 004°24'0 0.0
2014-Dec-02 14:33N 51°16' E 004°24'0 0.0
2014-Dec-02 13:33N 51°16' E 004°24'0 0.0
2014-Dec-02 12:33N 51°16' E 004°24'0 0.0
2014-Dec-02 11:33N 51°16' E 004°24'0 0.0
2014-Dec-02 10:33N 51°16' E 004°24'0 0.0
2014-Dec-02 09:33N 51°16' E 004°24'0 0.0
2014-Dec-02 08:33N 51°16' E 004°24'0 0.0
2014-Dec-02 07:33N 51°16' E 004°24'0 0.0
2014-Dec-02 06:33N 51°16' E 004°24'0 0.0
2014-Dec-02 05:33N 51°16' E 004°24'0 0.0
2014-Dec-02 04:33N 51°16' E 004°24'0 0.0
2014-Dec-02 03:33N 51°16' E 004°24'0 0.0
2014-Dec-02 02:33N 51°16' E 004°24'0 0.0
2014-Dec-02 01:33N 51°16' E 004°24'0 0.0
2014-Dec-02 00:33N 51°16' E 004°24'0 0.0
2014-Dec-01 23:33N 51°16' E 004°24'0 0.0
2014-Dec-01 22:33N 51°16' E 004°24'0 0.0
2014-Dec-01 21:33N 51°16' E 004°24'0 0.0
2014-Dec-01 20:33N 51°16' E 004°24'0 0.0
2014-Dec-01 19:33N 51°16' E 004°24'0 0.0
2014-Dec-01 18:33N 51°16' E 004°24'0 0.0
2014-Dec-01 17:33N 51°16' E 004°24'0 0.0
2014-Dec-01 16:33N 51°16' E 004°24'0 0.0
2014-Dec-01 15:33N 51°16' E 004°24'0 0.0
2014-Dec-01 14:33N 51°16' E 004°24'0 0.0
2014-Dec-01 13:33N 51°16' E 004°24'0 0.0
2014-Dec-01 12:33N 51°16' E 004°24'0 0.0
2014-Dec-01 11:33N 51°16' E 004°24'0 0.0
2014-Dec-01 10:33N 51°16' E 004°24'0 0.0
2014-Dec-01 09:33N 51°16' E 004°24'0 0.0
2014-Dec-01 08:33N 51°16' E 004°24'0 0.0
2014-Dec-01 07:33N 51°16' E 004°24'0 0.0
2014-Dec-01 06:33N 51°16' E 004°24'0 0.0
2014-Dec-01 05:33N 51°16' E 004°24'0 0.0
2014-Dec-01 04:33N 51°16' E 004°24'0 0.0
2014-Dec-01 03:33N 51°16' E 004°24'0 0.0
2014-Dec-01 02:33N 51°16' E 004°24'0 0.0
2014-Dec-01 01:33N 51°16' E 004°24'0 0.0
2014-Dec-01 00:33N 51°16' E 004°24'0 0.0
2014-Nov-30 23:33N 51°16' E 004°24'0 0.0
2014-Nov-30 22:33N 51°16' E 004°24'0 0.0
2014-Nov-30 21:33N 51°16' E 004°24'  
Track history (hours):
 
Tides and Currents Weather Stations Pressure Air Temp Water Temp Dewpoint Dewpoint Depression Visibility Wind Speed Wind Dir Waves Ship Positions

Safmarine Limpopo

Last reported at 2014-Dec-10 21:04 UTC. Time now 2014-Dec-20 00:54 UTC.
Position N 50°31' E 000°09'.
Warning: this ship's position is 9 days out of date.

Length 140 m; draft 8.5 m.

Type: Ship (hazmat cat A). MMSI: 417222324.

Date/timePositionNaut miles runAvg speedWind from/ knotsBaromVisibWave heightAir tempDewpointWater temp
2014-Dec-10 21:04N 50°31' E 000°09'611.6
2014-Dec-10 20:32N 50°33' E 000°19'1212.6
2014-Dec-10 19:33N 50°36' E 000°37'1414.2
2014-Dec-10 18:33N 50°43' E 000°56'1612.8
2014-Dec-10 17:18N 50°53' E 001°16'912.0
2014-Dec-10 16:34N 50°60' E 001°26'1010.3
2014-Dec-10 15:33N 51°07' E 001°37'1010.3
2014-Dec-10 14:33N 51°15' E 001°48'1111.4
2014-Dec-10 13:33N 51°25' E 001°57'1212.5
2014-Dec-10 12:33N 51°35' E 002°08'  
2014-Dec-05 20:33N 51°46' E 003°07'7 6.9
2014-Dec-05 19:31N 51°40' E 003°12'1311.5
2014-Dec-05 18:22N 51°28' E 003°01'8 9.9
2014-Dec-05 17:33N 51°24' E 003°13'1414.3
2014-Dec-05 16:33N 51°26' E 003°35'1313.1
2014-Dec-05 15:33N 51°22' E 003°55'9 9.5
2014-Dec-05 14:33N 51°23' E 004°10'9 9.2
2014-Dec-05 13:34N 51°17' E 004°20'0 0.0
2014-Dec-05 12:33N 51°17' E 004°20'2 2.4
2014-Dec-05 11:34N 51°16' E 004°24'0 0.1
2014-Dec-05 10:33N 51°16' E 004°24'0 0.0
2014-Dec-05 09:33N 51°16' E 004°24'0 0.0
2014-Dec-05 08:33N 51°16' E 004°24'0 0.0
2014-Dec-05 07:33N 51°16' E 004°24'0 0.0
2014-Dec-05 06:33N 51°16' E 004°24'0 0.0
2014-Dec-05 05:33N 51°16' E 004°24'0 0.0
2014-Dec-05 04:30N 51°16' E 004°24'0 0.0
2014-Dec-05 03:33N 51°16' E 004°24'0 0.0
2014-Dec-05 02:33N 51°16' E 004°24'0 0.0
2014-Dec-05 01:33N 51°16' E 004°24'0 0.0
2014-Dec-05 00:33N 51°16' E 004°24'0 0.0
2014-Dec-04 23:33N 51°16' E 004°24'0 0.0
2014-Dec-04 22:33N 51°16' E 004°24'0 0.0
2014-Dec-04 21:33N 51°16' E 004°24'0 0.0
2014-Dec-04 20:33N 51°16' E 004°24'0 0.0
2014-Dec-04 19:33N 51°16' E 004°24'0 0.0
2014-Dec-04 18:33N 51°16' E 004°24'0 0.0
2014-Dec-04 17:33N 51°16' E 004°24'0 0.0
2014-Dec-04 16:33N 51°16' E 004°24'0 0.0
2014-Dec-04 15:33N 51°16' E 004°24'0 0.0
2014-Dec-04 14:33N 51°16' E 004°24'0 0.0
2014-Dec-04 13:33N 51°16' E 004°24'0 0.0
2014-Dec-04 12:33N 51°16' E 004°24'0 0.0
2014-Dec-04 11:30N 51°16' E 004°24'0 0.0
2014-Dec-04 10:33N 51°16' E 004°24'0 0.0
2014-Dec-04 09:33N 51°16' E 004°24'0 0.0
2014-Dec-04 08:33N 51°16' E 004°24'0 0.0
2014-Dec-04 07:33N 51°16' E 004°24'0 0.0
2014-Dec-04 06:33N 51°16' E 004°24'0 0.0
2014-Dec-04 05:33N 51°16' E 004°24'0 0.0
2014-Dec-04 04:33N 51°16' E 004°24'0 0.0
2014-Dec-04 03:33N 51°16' E 004°24'0 0.0
2014-Dec-04 02:33N 51°16' E 004°24'0 0.0
2014-Dec-04 01:33N 51°16' E 004°24'0 0.0
2014-Dec-04 00:33N 51°16' E 004°24'0 0.0
2014-Dec-03 23:33N 51°16' E 004°24'0 0.0
2014-Dec-03 22:33N 51°16' E 004°24'0 0.0
2014-Dec-03 21:33N 51°16' E 004°24'0 0.0
2014-Dec-03 20:33N 51°16' E 004°24'0 0.0
2014-Dec-03 19:33N 51°16' E 004°24'0 0.0
2014-Dec-03 18:33N 51°16' E 004°24'0 0.0
2014-Dec-03 17:33N 51°16' E 004°24'0 0.0
2014-Dec-03 16:33N 51°16' E 004°24'0 0.0
2014-Dec-03 15:33N 51°16' E 004°24'0 0.0
2014-Dec-03 14:33N 51°16' E 004°24'0 0.0
2014-Dec-03 13:33N 51°16' E 004°24'0 0.0
2014-Dec-03 12:33N 51°16' E 004°24'0 0.0
2014-Dec-03 11:33N 51°16' E 004°24'0 0.0
2014-Dec-03 10:33N 51°16' E 004°24'0 0.0
2014-Dec-03 09:33N 51°16' E 004°24'0 0.0
2014-Dec-03 08:33N 51°16' E 004°24'0 0.0
2014-Dec-03 07:33N 51°16' E 004°24'0 0.0
2014-Dec-03 06:33N 51°16' E 004°24'0 0.0
2014-Dec-03 05:30N 51°16' E 004°24'0 0.0
2014-Dec-03 04:33N 51°16' E 004°24'0 0.0
2014-Dec-03 03:33N 51°16' E 004°24'0 0.0
2014-Dec-03 02:33N 51°16' E 004°24'0 0.0
2014-Dec-03 01:33N 51°16' E 004°24'0 0.0
2014-Dec-03 00:33N 51°16' E 004°24'0 0.0
2014-Dec-02 23:33N 51°16' E 004°24'0 0.0
2014-Dec-02 22:33N 51°16' E 004°24'0 0.0
2014-Dec-02 21:33N 51°16' E 004°24'0 0.0
2014-Dec-02 20:33N 51°16' E 004°24'0 0.0
2014-Dec-02 19:33N 51°16' E 004°24'0 0.0
2014-Dec-02 18:33N 51°16' E 004°24'0 0.0
2014-Dec-02 17:33N 51°16' E 004°24'0 0.0
2014-Dec-02 16:33N 51°16' E 004°24'0 0.0
2014-Dec-02 15:33N 51°16' E 004°24'0 0.0
2014-Dec-02 14:33N 51°16' E 004°24'0 0.0
2014-Dec-02 13:33N 51°16' E 004°24'0 0.0
2014-Dec-02 12:33N 51°16' E 004°24'0 0.0
2014-Dec-02 11:33N 51°16' E 004°24'0 0.0
2014-Dec-02 10:33N 51°16' E 004°24'0 0.0
2014-Dec-02 09:33N 51°16' E 004°24'0 0.0
2014-Dec-02 08:33N 51°16' E 004°24'0 0.0
2014-Dec-02 07:33N 51°16' E 004°24'0 0.0
2014-Dec-02 06:33N 51°16' E 004°24'0 0.0
2014-Dec-02 05:33N 51°16' E 004°24'0 0.0
2014-Dec-02 04:33N 51°16' E 004°24'0 0.0
2014-Dec-02 03:33N 51°16' E 004°24'0 0.0
2014-Dec-02 02:33N 51°16' E 004°24'0 0.0
2014-Dec-02 01:33N 51°16' E 004°24'0 0.0
2014-Dec-02 00:33N 51°16' E 004°24'0 0.0
2014-Dec-01 23:33N 51°16' E 004°24'0 0.0
2014-Dec-01 22:33N 51°16' E 004°24'0 0.0
2014-Dec-01 21:33N 51°16' E 004°24'0 0.0
2014-Dec-01 20:33N 51°16' E 004°24'0 0.0
2014-Dec-01 19:33N 51°16' E 004°24'0 0.0
2014-Dec-01 18:33N 51°16' E 004°24'0 0.0
2014-Dec-01 17:33N 51°16' E 004°24'0 0.0
2014-Dec-01 16:33N 51°16' E 004°24'0 0.0
2014-Dec-01 15:33N 51°16' E 004°24'0 0.0
2014-Dec-01 14:33N 51°16' E 004°24'0 0.0
2014-Dec-01 13:33N 51°16' E 004°24'0 0.0
2014-Dec-01 12:33N 51°16' E 004°24'0 0.0
2014-Dec-01 11:33N 51°16' E 004°24'0 0.0
2014-Dec-01 10:33N 51°16' E 004°24'0 0.0
2014-Dec-01 09:33N 51°16' E 004°24'0 0.0
2014-Dec-01 08:33N 51°16' E 004°24'0 0.0
2014-Dec-01 07:33N 51°16' E 004°24'0 0.0
2014-Dec-01 06:33N 51°16' E 004°24'0 0.0
2014-Dec-01 05:33N 51°16' E 004°24'0 0.0
2014-Dec-01 04:33N 51°16' E 004°24'0 0.0
2014-Dec-01 03:33N 51°16' E 004°24'0 0.0
2014-Dec-01 02:33N 51°16' E 004°24'0 0.0
2014-Dec-01 01:33N 51°16' E 004°24'0 0.0
2014-Dec-01 00:33N 51°16' E 004°24'0 0.0
2014-Nov-30 23:33N 51°16' E 004°24'0 0.0
2014-Nov-30 22:33N 51°16' E 004°24'0 0.0
2014-Nov-30 21:33N 51°16' E 004°24'  

Dump ship's entire track history